Time;durP1;ratioP1;P1;durP2;ratioP2;P2;SDS_P1;SDS_P2;PMS_P1;PMS_P2;Temp;Humidity;BMP_temperature;BMP_pressure;BME280_temperature;BME280_humidity;BME280_pressure;Samples;Min_cycle;Max_cycle;Signal;HPM_P1;HPM_P2
2022/10/06 00:07:04;;;;;;;10.50;7.17;;;13.80;99.90;;;;;;20991176;28;20280;-69
2022/10/06 00:17:06;;;;;;;10.73;6.53;;;13.70;99.90;;;;;;20991035;28;20540;-69
2022/10/06 00:27:07;;;;;;;8.10;3.97;;;13.70;99.90;;;;;;20989768;28;20238;-68
2022/10/06 00:37:09;;;;;;;7.27;3.50;;;13.80;99.90;;;;;;21057117;28;20630;-67
2022/10/06 00:47:11;;;;;;;6.67;4.27;;;14.30;99.90;;;;;;21072689;28;20231;-68
2022/10/06 00:57:13;;;;;;;11.43;4.60;;;14.50;99.90;;;;;;21071780;28;20215;-68
2022/10/06 01:07:17;;;;;;;8.03;4.20;;;14.50;99.90;;;;;;21069524;28;20234;-68
2022/10/06 01:17:30;;;;;;;10.30;4.20;;;14.50;99.90;;;;;;21071293;28;20215;-74
2022/10/06 01:27:35;;;;;;;9.50;3.13;;;14.60;99.90;;;;;;21070493;28;20234;-68
2022/10/06 01:37:36;;;;;;;5.40;3.07;;;15.10;99.90;;;;;;20998309;28;20720;-67
2022/10/06 01:47:38;;;;;;;4.10;2.57;;;15.30;99.90;;;;;;20987362;28;20282;-68
2022/10/06 01:57:40;;;;;;;6.00;2.90;;;15.60;99.90;;;;;;21001953;28;20654;-69
2022/10/06 02:07:42;;;;;;;5.57;2.77;;;15.80;99.90;;;;;;21000811;28;20238;-70
2022/10/06 02:17:44;;;;;;;7.60;3.00;;;15.90;99.90;;;;;;21002321;28;20261;-72
2022/10/06 02:27:46;;;;;;;5.63;3.60;;;16.00;99.90;;;;;;20999862;28;20843;-75
2022/10/06 02:37:48;;;;;;;7.20;3.00;;;16.00;99.90;;;;;;21072127;28;20210;-75
2022/10/06 02:47:50;;;;;;;9.07;3.30;;;15.90;99.90;;;;;;21081413;28;20292;-75
2022/10/06 02:57:53;;;;;;;7.00;3.57;;;15.50;99.90;;;;;;21080924;28;20206;-74
2022/10/06 03:07:54;;;;;;;7.67;3.87;;;15.40;99.90;;;;;;21079425;28;20237;-74
2022/10/06 03:17:56;;;;;;;5.03;3.67;;;15.40;99.90;;;;;;21079073;28;20563;-74
2022/10/06 03:27:58;;;;;;;7.63;3.60;;;15.20;99.90;;;;;;21078893;28;20230;-74
2022/10/06 03:37:59;;;;;;;5.90;3.83;;;15.20;99.90;;;;;;21003222;28;20209;-74
2022/10/06 03:48:01;;;;;;;5.80;3.40;;;15.20;99.90;;;;;;20994478;28;20239;-74
2022/10/06 03:58:02;;;;;;;12.30;3.83;;;15.30;99.90;;;;;;20994278;28;20299;-71
2022/10/06 04:08:04;;;;;;;6.80;3.50;;;15.40;99.90;;;;;;20992656;28;20298;-74
2022/10/06 04:18:06;;;;;;;6.77;4.03;;;15.40;99.90;;;;;;20991344;28;20207;-70
2022/10/06 04:28:08;;;;;;;12.17;3.87;;;15.40;99.90;;;;;;20992131;28;20664;-76
2022/10/06 04:38:13;;;;;;;11.20;4.00;;;15.60;99.90;;;;;;21067517;28;20235;-74
2022/10/06 04:58:04;;;;;;;5.07;3.80;;;15.80;99.90;;;;;;20979294;28;20549;-72
2022/10/06 05:08:06;;;;;;;4.93;1.97;;;15.80;99.90;;;;;;20976988;28;20212;-73
2022/10/06 05:18:08;;;;;;;2.73;1.30;;;15.50;99.90;;;;;;20975933;28;20204;-77
2022/10/06 05:28:09;;;;;;;2.63;1.13;;;15.10;99.90;;;;;;20975555;28;20236;-73
2022/10/06 05:38:11;;;;;;;3.00;1.00;;;15.10;99.90;;;;;;21051554;28;20209;-77
2022/10/06 05:48:12;;;;;;;2.33;1.00;;;15.10;99.90;;;;;;21057387;28;20214;-76
2022/10/06 05:58:14;;;;;;;1.20;1.00;;;15.00;99.90;;;;;;20913910;28;20211;-69
2022/10/06 06:08:19;;;;;;;4.10;1.20;;;15.00;99.90;;;;;;20849974;28;20444;-69
2022/10/06 06:18:20;;;;;;;7.80;1.70;;;15.10;99.90;;;;;;20833606;28;20219;-69
2022/10/06 06:28:22;;;;;;;8.57;1.70;;;15.10;99.90;;;;;;20833845;28;20565;-72
2022/10/06 06:38:24;;;;;;;4.27;1.90;;;15.10;99.90;;;;;;20832168;28;20236;-71
2022/10/06 06:48:25;;;;;;;2.57;1.90;;;15.20;99.90;;;;;;20831107;28;20239;-71
2022/10/06 06:58:29;;;;;;;6.07;2.23;;;15.30;99.90;;;;;;20830722;28;20215;-73
2022/10/06 07:08:31;;;;;;;9.03;4.97;;;15.40;99.90;;;;;;20828250;28;20236;-73
2022/10/06 07:28:53;;;;;;;6.03;2.33;;;15.50;99.90;;;;;;20828551;28;20260;-70
2022/10/06 07:38:55;;;;;;;4.83;1.50;;;15.50;99.90;;;;;;20990280;28;20230;-73
2022/10/06 07:48:57;;;;;;;6.53;1.40;;;15.70;99.90;;;;;;20991417;28;20242;-75
2022/10/06 07:58:59;;;;;;;4.93;1.73;;;15.70;99.90;;;;;;20991129;28;20730;-72
2022/10/06 08:09:01;;;;;;;6.47;1.50;;;15.90;99.90;;;;;;20988361;28;20272;-69
2022/10/06 08:19:03;;;;;;;4.03;1.63;;;16.10;99.90;;;;;;20988927;28;20207;-69
2022/10/06 08:29:05;;;;;;;8.73;1.53;;;16.10;99.80;;;;;;20988012;28;20339;-71
2022/10/06 08:39:07;;;;;;;5.30;1.47;;;16.20;98.10;;;;;;20905090;28;20576;-75
2022/10/06 08:49:18;;;;;;;4.53;1.53;;;16.40;96.40;;;;;;20903385;28;20231;-69
2022/10/06 08:59:20;;;;;;;4.17;1.37;;;16.20;93.10;;;;;;20905352;28;20246;-74
2022/10/06 09:10:00;;;;;;;3.87;1.50;;;16.20;92.90;;;;;;20904205;28;20288;-73
2022/10/06 09:20:19;;;;;;;5.57;1.90;;;16.30;93.10;;;;;;20903554;28;20716;-70
2022/10/06 09:30:21;;;;;;;5.50;1.53;;;16.30;93.40;;;;;;20914450;28;20231;-73
2022/10/06 09:40:36;;;;;;;4.43;1.20;;;16.60;92.20;;;;;;20995680;28;20276;-73
2022/10/06 09:50:39;;;;;;;2.40;1.20;;;17.10;86.40;;;;;;21000895;28;20260;-75
2022/10/06 10:01:10;;;;;;;3.30;1.73;;;17.30;84.80;;;;;;21001037;28;20239;-78
2022/10/06 10:21:44;;;;;;;5.03;1.60;;;17.40;79.90;;;;;;20998727;28;20203;-71
2022/10/06 10:31:56;;;;;;;6.70;1.70;;;17.50;77.80;;;;;;20975223;28;20230;-68
2022/10/06 10:42:01;;;;;;;6.80;1.80;;;17.40;75.60;;;;;;20914786;28;20874;-70
2022/10/06 10:52:08;;;;;;;4.60;1.70;;;17.60;73.60;;;;;;20913236;28;20329;-71
2022/10/06 11:02:19;;;;;;;6.40;2.03;;;17.70;73.80;;;;;;20912334;28;20704;-70
2022/10/06 11:12:44;;;;;;;3.83;1.50;;;17.90;73.10;;;;;;20910831;28;20748;-72
2022/10/06 11:23:09;;;;;;;6.63;1.17;;;17.90;70.60;;;;;;20933064;28;20214;-72
2022/10/06 11:33:31;;;;;;;3.53;1.10;;;18.10;70.00;;;;;;20980356;28;20237;-69
2022/10/06 11:43:48;;;;;;;7.83;1.30;;;18.20;69.30;;;;;;20909608;28;20207;-70
2022/10/06 11:53:51;;;;;;;6.53;1.50;;;18.50;68.70;;;;;;20948594;28;20241;-70
2022/10/06 12:04:04;;;;;;;3.17;1.40;;;18.80;67.60;;;;;;20989318;28;20240;-70
2022/10/06 12:14:24;;;;;;;8.17;3.63;;;19.00;65.10;;;;;;20993219;28;20246;-69
2022/10/06 12:25:05;;;;;;;5.30;2.97;;;19.20;65.10;;;;;;20995477;28;20312;-69
2022/10/06 12:35:06;;;;;;;3.73;1.87;;;19.40;64.40;;;;;;20995253;28;20234;-70
2022/10/06 12:45:15;;;;;;;4.10;1.50;;;19.40;63.30;;;;;;20995274;28;20210;-72
2022/10/06 12:55:41;;;;;;;4.50;1.20;;;19.30;62.90;;;;;;20993574;28;20709;-76
2022/10/06 13:05:54;;;;;;;6.27;1.40;;;19.30;62.30;;;;;;20993434;28;20633;-72
2022/10/06 13:15:59;;;;;;;9.20;1.43;;;19.20;62.10;;;;;;21003501;28;20729;-71
2022/10/06 13:26:07;;;;;;;4.93;1.60;;;19.10;61.60;;;;;;21009777;28;20216;-74
2022/10/06 13:36:10;;;;;;;4.33;1.70;;;19.10;62.00;;;;;;21009220;28;20294;-76
2022/10/06 13:46:14;;;;;;;3.00;1.20;;;19.00;62.70;;;;;;21008006;28;20213;-72
2022/10/06 13:56:39;;;;;;;3.23;0.90;;;19.00;62.30;;;;;;21006876;28;20268;-74
2022/10/06 14:06:52;;;;;;;5.67;1.80;;;19.00;60.10;;;;;;21006182;28;20336;-72
2022/10/06 14:16:54;;;;;;;7.77;2.30;;;19.20;60.10;;;;;;21005382;28;20234;-73
2022/10/06 14:27:01;;;;;;;5.13;2.10;;;19.50;59.30;;;;;;21004069;28;20230;-74
2022/10/06 14:37:02;;;;;;;3.47;1.20;;;19.80;58.40;;;;;;21003209;28;20235;-75
2022/10/06 14:47:05;;;;;;;6.63;2.00;;;19.90;57.50;;;;;;21003046;28;20207;-73
2022/10/06 14:57:08;;;;;;;2.67;1.30;;;20.30;57.30;;;;;;21002618;28;20591;-72
2022/10/06 15:17:30;;;;;;;6.20;1.60;;;21.20;55.10;;;;;;21000713;28;20238;-74
2022/10/06 15:37:54;;;;;;;3.60;1.23;;;19.40;56.60;;;;;;20998431;28;20266;-73
2022/10/06 15:47:55;;;;;;;5.67;1.20;;;19.20;57.40;;;;;;20998181;28;20610;-71
2022/10/06 15:57:58;;;;;;;12.70;1.47;;;18.80;57.90;;;;;;20996266;28;20244;-75
2022/10/06 16:07:59;;;;;;;5.87;1.10;;;18.40;58.00;;;;;;20996028;28;20205;-73
2022/10/06 16:18:01;;;;;;;11.30;1.53;;;18.30;58.90;;;;;;20996437;28;20237;-72
2022/10/06 16:28:03;;;;;;;10.90;5.80;;;17.90;59.60;;;;;;20995796;28;20207;-72
2022/10/06 16:38:04;;;;;;;5.93;2.00;;;17.70;61.20;;;;;;20995028;28;20239;-72
2022/10/06 16:48:06;;;;;;;10.00;4.27;;;17.40;62.60;;;;;;20901944;28;20872;-75
2022/10/06 16:58:08;;;;;;;4.30;2.10;;;17.10;64.00;;;;;;20827948;28;20248;-76
2022/10/06 17:08:10;;;;;;;5.40;2.20;;;16.80;65.90;;;;;;20851139;28;20643;-72
2022/10/06 17:18:11;;;;;;;8.10;2.80;;;16.40;68.10;;;;;;20957567;28;20686;-75
2022/10/06 17:28:13;;;;;;;6.57;3.20;;;16.00;69.20;;;;;;20949791;28;20205;-75
2022/10/06 17:38:15;;;;;;;7.20;2.90;;;15.80;70.10;;;;;;20906764;28;20294;-75
2022/10/06 17:48:17;;;;;;;8.17;3.87;;;15.50;72.40;;;;;;20970125;28;20257;-73
2022/10/06 17:58:20;;;;;;;8.43;3.53;;;15.40;73.90;;;;;;20833412;28;20237;-71
2022/10/06 18:08:24;;;;;;;8.47;4.20;;;15.20;75.10;;;;;;20865079;28;20208;-75
2022/10/06 18:18:26;;;;;;;13.37;4.40;;;15.00;77.00;;;;;;20958282;28;20235;-74
2022/10/06 18:28:27;;;;;;;7.43;4.63;;;14.80;78.20;;;;;;21002179;28;20262;-75
2022/10/06 18:38:36;;;;;;;10.97;4.87;;;14.50;80.30;;;;;;20913709;28;20669;-73
2022/10/06 18:48:54;;;;;;;8.27;4.47;;;14.50;81.40;;;;;;20913112;28;20228;-74
2022/10/06 18:59:02;;;;;;;12.57;4.33;;;14.10;82.90;;;;;;20917688;28;20243;-71
2022/10/06 19:09:05;;;;;;;5.53;3.90;;;14.00;84.10;;;;;;20918137;28;20215;-72
2022/10/06 19:19:10;;;;;;;10.93;4.80;;;13.90;85.40;;;;;;20956080;28;20281;-74
2022/10/06 19:29:12;;;;;;;11.10;5.67;;;13.70;86.50;;;;;;20998460;28;20215;-73
2022/10/06 19:39:15;;;;;;;12.20;5.00;;;13.60;87.40;;;;;;20996994;28;20307;-75
2022/10/06 19:49:17;;;;;;;11.13;4.90;;;13.40;88.20;;;;;;20889382;28;20241;-73
2022/10/06 19:59:23;;;;;;;9.57;5.03;;;13.20;89.20;;;;;;20824754;28;20300;-72
2022/10/06 20:09:24;;;;;;;8.53;4.90;;;13.00;89.30;;;;;;20823361;28;20243;-74
2022/10/06 20:19:26;;;;;;;13.67;4.90;;;12.90;90.40;;;;;;20908225;28;20325;-75
2022/10/06 20:29:30;;;;;;;11.53;4.93;;;12.80;90.70;;;;;;20987539;28;20704;-75
2022/10/06 20:49:53;;;;;;;11.50;4.70;;;12.50;91.00;;;;;;20985902;28;20240;-73
2022/10/06 20:59:55;;;;;;;12.97;4.60;;;12.40;91.50;;;;;;20986119;28;20598;-73
2022/10/06 21:09:57;;;;;;;10.93;4.13;;;12.20;91.80;;;;;;20985889;28;20241;-73
2022/10/06 21:19:59;;;;;;;15.93;4.70;;;12.20;92.10;;;;;;20937501;28;20205;-73
2022/10/06 21:30:01;;;;;;;11.87;4.10;;;12.00;92.30;;;;;;20901809;28;20701;-72
2022/10/06 21:40:03;;;;;;;12.47;3.77;;;12.00;92.40;;;;;;20916419;28;20211;-73
2022/10/06 21:50:05;;;;;;;7.13;3.47;;;11.80;92.50;;;;;;20918178;28;20266;-72
2022/10/06 22:00:09;;;;;;;7.60;3.30;;;11.60;92.60;;;;;;20921732;28;20210;-74
2022/10/06 22:10:11;;;;;;;7.87;3.33;;;11.60;92.90;;;;;;20921481;28;20240;-74
2022/10/06 22:20:13;;;;;;;12.13;3.80;;;11.50;92.90;;;;;;20922147;28;20304;-74
2022/10/06 22:30:15;;;;;;;9.10;3.60;;;11.20;93.00;;;;;;20922070;28;20323;-74
2022/10/06 22:40:17;;;;;;;7.93;3.77;;;11.00;93.20;;;;;;20922011;28;20573;-75
2022/10/06 22:50:18;;;;;;;10.23;3.30;;;11.00;93.50;;;;;;20920198;28;20237;-74
2022/10/06 23:00:20;;;;;;;15.97;3.53;;;10.90;93.50;;;;;;20919870;28;20208;-72
2022/10/06 23:10:23;;;;;;;9.30;3.00;;;10.90;93.70;;;;;;20919380;28;20251;-72
2022/10/06 23:20:25;;;;;;;8.93;3.30;;;10.90;93.60;;;;;;20918339;28;20205;-73
2022/10/06 23:30:27;;;;;;;9.60;3.30;;;10.50;93.40;;;;;;20917099;28;20224;-73
2022/10/06 23:40:29;;;;;;;6.57;2.57;;;10.50;93.70;;;;;;20916748;28;20208;-70
2022/10/06 23:50:31;;;;;;;7.73;2.97;;;10.50;94.00;;;;;;20915362;28;20247;-71
